sensor_id;sensor_type;location;lat;lon;timestamp;P1;durP1;ratioP1;P2;durP2;ratioP2
76157;SDS011;64907;51.574;6.502;2024-01-11T00:01:51;49.58;;;22.67;;
76157;SDS011;64907;51.574;6.502;2024-01-11T00:04:17;54.25;;;25.63;;
76157;SDS011;64907;51.574;6.502;2024-01-11T00:06:42;51.70;;;23.92;;
76157;SDS011;64907;51.574;6.502;2024-01-11T00:09:08;52.08;;;24.23;;
76157;SDS011;64907;51.574;6.502;2024-01-11T00:11:33;52.28;;;23.60;;
76157;SDS011;64907;51.574;6.502;2024-01-11T00:13:58;48.63;;;24.33;;
76157;SDS011;64907;51.574;6.502;2024-01-11T00:16:23;56.67;;;25.77;;
76157;SDS011;64907;51.574;6.502;2024-01-11T00:18:48;51.80;;;25.08;;
76157;SDS011;64907;51.574;6.502;2024-01-11T00:21:14;51.75;;;25.83;;
76157;SDS011;64907;51.574;6.502;2024-01-11T00:23:39;54.78;;;25.38;;
76157;SDS011;64907;51.574;6.502;2024-01-11T00:26:06;55.03;;;25.13;;
76157;SDS011;64907;51.574;6.502;2024-01-11T00:28:31;52.10;;;24.58;;
76157;SDS011;64907;51.574;6.502;2024-01-11T00:30:56;49.90;;;23.73;;
76157;SDS011;64907;51.574;6.502;2024-01-11T00:33:23;52.83;;;25.25;;
76157;SDS011;64907;51.574;6.502;2024-01-11T00:35:48;57.10;;;26.20;;
76157;SDS011;64907;51.574;6.502;2024-01-11T00:40:42;53.60;;;24.42;;
76157;SDS011;64907;51.574;6.502;2024-01-11T00:43:07;53.78;;;26.33;;
76157;SDS011;64907;51.574;6.502;2024-01-11T00:45:33;52.83;;;26.02;;
76157;SDS011;64907;51.574;6.502;2024-01-11T00:47:58;52.70;;;26.63;;
76157;SDS011;64907;51.574;6.502;2024-01-11T00:50:23;53.03;;;24.65;;
76157;SDS011;64907;51.574;6.502;2024-01-11T00:52:48;61.42;;;25.73;;
76157;SDS011;64907;51.574;6.502;2024-01-11T00:55:14;54.97;;;24.30;;
76157;SDS011;64907;51.574;6.502;2024-01-11T00:57:41;53.47;;;26.45;;
76157;SDS011;64907;51.574;6.502;2024-01-11T01:00:06;56.05;;;25.00;;
76157;SDS011;64907;51.574;6.502;2024-01-11T01:02:31;54.58;;;25.63;;
76157;SDS011;64907;51.574;6.502;2024-01-11T01:04:57;58.00;;;26.88;;
76157;SDS011;64907;51.574;6.502;2024-01-11T01:07:22;56.20;;;25.83;;
76157;SDS011;64907;51.574;6.502;2024-01-11T01:09:47;53.47;;;26.10;;
76157;SDS011;64907;51.574;6.502;2024-01-11T01:12:12;52.90;;;25.80;;
76157;SDS011;64907;51.574;6.502;2024-01-11T01:14:37;56.88;;;25.15;;
76157;SDS011;64907;51.574;6.502;2024-01-11T01:17:03;53.70;;;25.88;;
76157;SDS011;64907;51.574;6.502;2024-01-11T01:19:28;59.08;;;26.10;;
76157;SDS011;64907;51.574;6.502;2024-01-11T01:21:53;52.65;;;25.55;;
76157;SDS011;64907;51.574;6.502;2024-01-11T01:24:18;56.80;;;25.30;;
76157;SDS011;64907;51.574;6.502;2024-01-11T01:26:43;54.53;;;25.65;;
76157;SDS011;64907;51.574;6.502;2024-01-11T01:29:09;56.70;;;25.42;;
76157;SDS011;64907;51.574;6.502;2024-01-11T01:31:34;52.47;;;25.75;;
76157;SDS011;64907;51.574;6.502;2024-01-11T01:34:02;55.53;;;26.45;;
76157;SDS011;64907;51.574;6.502;2024-01-11T01:36:28;54.58;;;25.50;;
76157;SDS011;64907;51.574;6.502;2024-01-11T01:38:53;54.22;;;25.95;;
76157;SDS011;64907;51.574;6.502;2024-01-11T01:41:18;52.40;;;26.17;;
76157;SDS011;64907;51.574;6.502;2024-01-11T01:43:43;56.05;;;25.80;;
76157;SDS011;64907;51.574;6.502;2024-01-11T01:46:08;58.85;;;27.88;;
76157;SDS011;64907;51.574;6.502;2024-01-11T01:48:34;61.30;;;26.23;;
76157;SDS011;64907;51.574;6.502;2024-01-11T01:50:59;49.88;;;24.42;;
76157;SDS011;64907;51.574;6.502;2024-01-11T01:53:24;50.25;;;24.38;;
76157;SDS011;64907;51.574;6.502;2024-01-11T01:55:53;52.97;;;24.17;;
76157;SDS011;64907;51.574;6.502;2024-01-11T01:58:18;55.10;;;24.73;;
76157;SDS011;64907;51.574;6.502;2024-01-11T02:00:44;54.28;;;24.88;;
76157;SDS011;64907;51.574;6.502;2024-01-11T02:03:10;50.50;;;24.00;;
76157;SDS011;64907;51.574;6.502;2024-01-11T02:05:35;54.92;;;24.90;;
76157;SDS011;64907;51.574;6.502;2024-01-11T02:08:01;46.58;;;25.65;;
76157;SDS011;64907;51.574;6.502;2024-01-11T02:10:28;51.47;;;23.95;;
76157;SDS011;64907;51.574;6.502;2024-01-11T02:12:55;58.33;;;26.65;;
76157;SDS011;64907;51.574;6.502;2024-01-11T02:15:21;58.55;;;27.05;;
76157;SDS011;64907;51.574;6.502;2024-01-11T02:17:47;56.60;;;25.57;;
76157;SDS011;64907;51.574;6.502;2024-01-11T02:20:12;60.80;;;27.50;;
76157;SDS011;64907;51.574;6.502;2024-01-11T02:22:38;63.42;;;28.58;;
76157;SDS011;64907;51.574;6.502;2024-01-11T02:25:04;64.88;;;28.98;;
76157;SDS011;64907;51.574;6.502;2024-01-11T02:27:29;56.38;;;28.13;;
76157;SDS011;64907;51.574;6.502;2024-01-11T02:29:54;57.58;;;26.27;;
76157;SDS011;64907;51.574;6.502;2024-01-11T02:32:19;61.10;;;27.67;;
76157;SDS011;64907;51.574;6.502;2024-01-11T02:34:45;60.60;;;27.60;;
76157;SDS011;64907;51.574;6.502;2024-01-11T02:37:13;56.03;;;28.07;;
76157;SDS011;64907;51.574;6.502;2024-01-11T02:39:39;61.55;;;28.92;;
76157;SDS011;64907;51.574;6.502;2024-01-11T02:42:04;54.83;;;27.40;;
76157;SDS011;64907;51.574;6.502;2024-01-11T02:44:29;59.88;;;27.88;;
76157;SDS011;64907;51.574;6.502;2024-01-11T02:46:54;59.47;;;26.25;;
76157;SDS011;64907;51.574;6.502;2024-01-11T02:49:20;60.15;;;26.70;;
76157;SDS011;64907;51.574;6.502;2024-01-11T02:51:45;62.15;;;27.02;;
76157;SDS011;64907;51.574;6.502;2024-01-11T02:54:10;57.42;;;24.92;;
76157;SDS011;64907;51.574;6.502;2024-01-11T02:56:35;52.10;;;24.30;;
76157;SDS011;64907;51.574;6.502;2024-01-11T02:59:00;58.08;;;26.40;;
76157;SDS011;64907;51.574;6.502;2024-01-11T03:01:26;59.42;;;27.50;;
76157;SDS011;64907;51.574;6.502;2024-01-11T03:03:51;54.93;;;27.67;;
76157;SDS011;64907;51.574;6.502;2024-01-11T03:06:16;62.60;;;27.50;;
76157;SDS011;64907;51.574;6.502;2024-01-11T03:08:46;59.60;;;25.83;;
76157;SDS011;64907;51.574;6.502;2024-01-11T03:11:11;60.22;;;27.38;;
76157;SDS011;64907;51.574;6.502;2024-01-11T03:13:36;55.65;;;25.80;;
76157;SDS011;64907;51.574;6.502;2024-01-11T03:16:02;58.42;;;27.50;;
76157;SDS011;64907;51.574;6.502;2024-01-11T03:18:28;62.97;;;27.30;;
76157;SDS011;64907;51.574;6.502;2024-01-11T03:20:54;65.10;;;25.90;;
76157;SDS011;64907;51.574;6.502;2024-01-11T03:23:20;68.70;;;28.20;;
76157;SDS011;64907;51.574;6.502;2024-01-11T03:25:45;56.25;;;25.40;;
76157;SDS011;64907;51.574;6.502;2024-01-11T03:28:10;54.88;;;26.70;;
76157;SDS011;64907;51.574;6.502;2024-01-11T03:30:35;61.75;;;26.02;;
76157;SDS011;64907;51.574;6.502;2024-01-11T03:33:02;60.58;;;27.33;;
76157;SDS011;64907;51.574;6.502;2024-01-11T03:35:27;61.77;;;27.07;;
76157;SDS011;64907;51.574;6.502;2024-01-11T03:37:52;57.72;;;26.60;;
76157;SDS011;64907;51.574;6.502;2024-01-11T03:40:17;55.03;;;25.10;;
76157;SDS011;64907;51.574;6.502;2024-01-11T03:42:42;53.55;;;25.13;;
76157;SDS011;64907;51.574;6.502;2024-01-11T03:45:08;50.87;;;24.20;;
76157;SDS011;64907;51.574;6.502;2024-01-11T03:47:34;53.83;;;25.50;;
76157;SDS011;64907;51.574;6.502;2024-01-11T03:49:59;62.42;;;25.70;;
76157;SDS011;64907;51.574;6.502;2024-01-11T03:52:24;63.27;;;27.33;;
76157;SDS011;64907;51.574;6.502;2024-01-11T03:54:50;63.70;;;25.08;;
76157;SDS011;64907;51.574;6.502;2024-01-11T03:57:15;57.30;;;26.48;;
76157;SDS011;64907;51.574;6.502;2024-01-11T03:59:40;60.40;;;26.50;;
76157;SDS011;64907;51.574;6.502;2024-01-11T04:02:06;60.50;;;25.77;;
76157;SDS011;64907;51.574;6.502;2024-01-11T04:04:32;55.05;;;25.50;;
76157;SDS011;64907;51.574;6.502;2024-01-11T04:06:57;58.00;;;26.38;;
76157;SDS011;64907;51.574;6.502;2024-01-11T04:09:23;54.58;;;27.15;;
76157;SDS011;64907;51.574;6.502;2024-01-11T04:11:48;58.93;;;26.80;;
76157;SDS011;64907;51.574;6.502;2024-01-11T04:14:13;54.95;;;26.13;;
76157;SDS011;64907;51.574;6.502;2024-01-11T04:16:39;57.63;;;24.73;;
76157;SDS011;64907;51.574;6.502;2024-01-11T04:19:04;57.97;;;26.05;;
76157;SDS011;64907;51.574;6.502;2024-01-11T04:21:30;56.15;;;26.27;;
76157;SDS011;64907;51.574;6.502;2024-01-11T04:23:55;56.33;;;26.10;;
76157;SDS011;64907;51.574;6.502;2024-01-11T04:26:21;54.80;;;25.73;;
76157;SDS011;64907;51.574;6.502;2024-01-11T04:28:46;58.33;;;26.97;;
76157;SDS011;64907;51.574;6.502;2024-01-11T04:31:12;65.00;;;26.87;;
76157;SDS011;64907;51.574;6.502;2024-01-11T04:33:41;51.15;;;24.95;;
76157;SDS011;64907;51.574;6.502;2024-01-11T04:36:07;54.10;;;25.77;;
76157;SDS011;64907;51.574;6.502;2024-01-11T04:38:32;58.90;;;26.90;;
76157;SDS011;64907;51.574;6.502;2024-01-11T04:40:57;63.83;;;26.80;;
76157;SDS011;64907;51.574;6.502;2024-01-11T04:43:24;57.00;;;25.87;;
76157;SDS011;64907;51.574;6.502;2024-01-11T04:45:49;61.33;;;31.80;;
76157;SDS011;64907;51.574;6.502;2024-01-11T04:48:14;56.20;;;28.45;;
76157;SDS011;64907;51.574;6.502;2024-01-11T04:50:39;57.67;;;27.70;;
76157;SDS011;64907;51.574;6.502;2024-01-11T04:53:04;61.00;;;26.27;;
76157;SDS011;64907;51.574;6.502;2024-01-11T04:55:30;57.67;;;24.60;;
76157;SDS011;64907;51.574;6.502;2024-01-11T04:57:55;55.95;;;25.90;;
76157;SDS011;64907;51.574;6.502;2024-01-11T05:00:26;55.88;;;25.75;;
76157;SDS011;64907;51.574;6.502;2024-01-11T05:02:51;50.50;;;25.58;;
76157;SDS011;64907;51.574;6.502;2024-01-11T05:05:16;54.38;;;24.15;;
76157;SDS011;64907;51.574;6.502;2024-01-11T05:07:45;51.03;;;24.30;;
76157;SDS011;64907;51.574;6.502;2024-01-11T05:10:10;54.43;;;26.73;;
76157;SDS011;64907;51.574;6.502;2024-01-11T05:12:35;67.17;;;25.90;;
76157;SDS011;64907;51.574;6.502;2024-01-11T05:15:02;50.42;;;25.00;;
76157;SDS011;64907;51.574;6.502;2024-01-11T05:17:27;54.40;;;23.70;;
76157;SDS011;64907;51.574;6.502;2024-01-11T05:19:54;55.33;;;24.30;;
76157;SDS011;64907;51.574;6.502;2024-01-11T05:22:19;52.72;;;24.25;;
76157;SDS011;64907;51.574;6.502;2024-01-11T05:24:44;53.92;;;25.50;;
76157;SDS011;64907;51.574;6.502;2024-01-11T05:27:09;55.60;;;25.07;;
76157;SDS011;64907;51.574;6.502;2024-01-11T05:29:35;55.33;;;25.15;;
76157;SDS011;64907;51.574;6.502;2024-01-11T05:32:00;53.10;;;23.33;;
76157;SDS011;64907;51.574;6.502;2024-01-11T05:34:25;53.72;;;25.95;;
76157;SDS011;64907;51.574;6.502;2024-01-11T05:36:50;56.72;;;24.80;;
76157;SDS011;64907;51.574;6.502;2024-01-11T05:39:15;53.10;;;24.53;;
76157;SDS011;64907;51.574;6.502;2024-01-11T05:41:43;54.85;;;24.20;;
76157;SDS011;64907;51.574;6.502;2024-01-11T05:44:08;50.63;;;22.48;;
76157;SDS011;64907;51.574;6.502;2024-01-11T05:46:35;53.72;;;24.35;;
76157;SDS011;64907;51.574;6.502;2024-01-11T05:49:00;49.30;;;23.98;;
76157;SDS011;64907;51.574;6.502;2024-01-11T05:51:25;50.90;;;24.42;;
76157;SDS011;64907;51.574;6.502;2024-01-11T05:53:50;54.70;;;24.03;;
76157;SDS011;64907;51.574;6.502;2024-01-11T05:56:15;55.80;;;24.73;;
76157;SDS011;64907;51.574;6.502;2024-01-11T05:58:41;47.30;;;23.20;;
76157;SDS011;64907;51.574;6.502;2024-01-11T06:01:06;55.47;;;25.65;;
76157;SDS011;64907;51.574;6.502;2024-01-11T06:03:31;47.13;;;22.52;;
76157;SDS011;64907;51.574;6.502;2024-01-11T06:05:59;50.83;;;22.87;;
76157;SDS011;64907;51.574;6.502;2024-01-11T06:08:27;50.23;;;23.53;;
76157;SDS011;64907;51.574;6.502;2024-01-11T06:10:53;45.23;;;22.60;;
76157;SDS011;64907;51.574;6.502;2024-01-11T06:13:18;46.83;;;20.77;;
76157;SDS011;64907;51.574;6.502;2024-01-11T06:15:51;46.50;;;20.93;;
76157;SDS011;64907;51.574;6.502;2024-01-11T06:18:16;45.33;;;20.73;;
76157;SDS011;64907;51.574;6.502;2024-01-11T06:20:41;49.60;;;21.50;;
76157;SDS011;64907;51.574;6.502;2024-01-11T06:23:06;44.10;;;21.20;;
76157;SDS011;64907;51.574;6.502;2024-01-11T06:25:32;46.53;;;21.53;;
76157;SDS011;64907;51.574;6.502;2024-01-11T06:27:59;47.97;;;22.27;;
76157;SDS011;64907;51.574;6.502;2024-01-11T06:30:30;42.67;;;19.97;;
76157;SDS011;64907;51.574;6.502;2024-01-11T06:32:56;56.28;;;24.90;;
76157;SDS011;64907;51.574;6.502;2024-01-11T06:38:01;50.07;;;20.90;;
76157;SDS011;64907;51.574;6.502;2024-01-11T06:40:27;50.87;;;24.43;;
76157;SDS011;64907;51.574;6.502;2024-01-11T06:42:52;59.72;;;33.00;;
76157;SDS011;64907;51.574;6.502;2024-01-11T06:45:19;59.53;;;28.33;;
76157;SDS011;64907;51.574;6.502;2024-01-11T06:47:44;53.67;;;25.67;;
76157;SDS011;64907;51.574;6.502;2024-01-11T06:50:12;54.37;;;27.20;;
76157;SDS011;64907;51.574;6.502;2024-01-11T06:52:37;54.63;;;23.80;;
76157;SDS011;64907;51.574;6.502;2024-01-11T06:55:03;54.03;;;25.00;;
76157;SDS011;64907;51.574;6.502;2024-01-11T06:57:29;50.63;;;24.47;;
76157;SDS011;64907;51.574;6.502;2024-01-11T06:59:54;45.03;;;23.10;;
76157;SDS011;64907;51.574;6.502;2024-01-11T07:02:20;47.67;;;23.43;;
76157;SDS011;64907;51.574;6.502;2024-01-11T07:04:46;53.37;;;24.43;;
76157;SDS011;64907;51.574;6.502;2024-01-11T07:07:11;51.50;;;24.17;;
76157;SDS011;64907;51.574;6.502;2024-01-11T07:09:36;52.03;;;22.77;;
76157;SDS011;64907;51.574;6.502;2024-01-11T07:12:02;57.07;;;24.50;;
76157;SDS011;64907;51.574;6.502;2024-01-11T07:14:27;43.67;;;23.37;;
76157;SDS011;64907;51.574;6.502;2024-01-11T07:16:53;54.17;;;25.23;;
76157;SDS011;64907;51.574;6.502;2024-01-11T07:19:19;50.57;;;23.23;;
76157;SDS011;64907;51.574;6.502;2024-01-11T07:21:44;53.20;;;22.87;;
76157;SDS011;64907;51.574;6.502;2024-01-11T07:24:09;52.55;;;24.17;;
76157;SDS011;64907;51.574;6.502;2024-01-11T07:26:34;57.90;;;24.13;;
76157;SDS011;64907;51.574;6.502;2024-01-11T07:31:43;48.08;;;24.20;;
76157;SDS011;64907;51.574;6.502;2024-01-11T07:39:38;50.05;;;23.25;;
76157;SDS011;64907;51.574;6.502;2024-01-11T07:42:05;49.13;;;23.50;;
76157;SDS011;64907;51.574;6.502;2024-01-11T07:44:36;43.57;;;22.00;;
76157;SDS011;64907;51.574;6.502;2024-01-11T07:47:01;46.80;;;23.57;;
76157;SDS011;64907;51.574;6.502;2024-01-11T07:49:27;58.07;;;25.57;;
76157;SDS011;64907;51.574;6.502;2024-01-11T07:51:52;45.17;;;22.27;;
76157;SDS011;64907;51.574;6.502;2024-01-11T07:54:17;49.90;;;24.07;;
76157;SDS011;64907;51.574;6.502;2024-01-11T07:56:42;47.63;;;22.20;;
76157;SDS011;64907;51.574;6.502;2024-01-11T07:59:07;49.00;;;23.00;;
76157;SDS011;64907;51.574;6.502;2024-01-11T08:01:33;45.57;;;22.33;;
76157;SDS011;64907;51.574;6.502;2024-01-11T08:04:03;44.60;;;21.50;;
76157;SDS011;64907;51.574;6.502;2024-01-11T08:06:28;47.45;;;21.33;;
76157;SDS011;64907;51.574;6.502;2024-01-11T08:08:53;45.13;;;20.73;;
76157;SDS011;64907;51.574;6.502;2024-01-11T08:11:19;46.20;;;21.17;;
76157;SDS011;64907;51.574;6.502;2024-01-11T08:13:44;53.53;;;23.03;;
76157;SDS011;64907;51.574;6.502;2024-01-11T08:16:14;44.33;;;21.63;;
76157;SDS011;64907;51.574;6.502;2024-01-11T08:21:09;41.13;;;21.02;;
76157;SDS011;64907;51.574;6.502;2024-01-11T08:23:35;47.13;;;22.30;;
76157;SDS011;64907;51.574;6.502;2024-01-11T08:26:00;47.00;;;22.23;;
76157;SDS011;64907;51.574;6.502;2024-01-11T08:28:28;46.33;;;22.95;;
76157;SDS011;64907;51.574;6.502;2024-01-11T08:30:53;47.00;;;21.13;;
76157;SDS011;64907;51.574;6.502;2024-01-11T08:33:18;46.10;;;21.53;;
76157;SDS011;64907;51.574;6.502;2024-01-11T08:35:47;43.77;;;22.33;;
76157;SDS011;64907;51.574;6.502;2024-01-11T08:38:12;46.00;;;22.27;;
76157;SDS011;64907;51.574;6.502;2024-01-11T08:40:37;43.40;;;21.87;;
76157;SDS011;64907;51.574;6.502;2024-01-11T08:43:04;44.40;;;22.70;;
76157;SDS011;64907;51.574;6.502;2024-01-11T08:45:29;40.60;;;21.43;;
76157;SDS011;64907;51.574;6.502;2024-01-11T08:47:56;46.50;;;21.97;;
76157;SDS011;64907;51.574;6.502;2024-01-11T08:52:51;43.05;;;20.63;;
76157;SDS011;64907;51.574;6.502;2024-01-11T08:55:16;40.78;;;21.13;;
76157;SDS011;64907;51.574;6.502;2024-01-11T08:57:42;42.90;;;21.00;;
76157;SDS011;64907;51.574;6.502;2024-01-11T09:00:07;43.88;;;22.00;;
76157;SDS011;64907;51.574;6.502;2024-01-11T09:02:32;50.63;;;22.58;;
76157;SDS011;64907;51.574;6.502;2024-01-11T09:04:57;39.65;;;21.33;;
76157;SDS011;64907;51.574;6.502;2024-01-11T09:07:23;41.22;;;20.52;;
76157;SDS011;64907;51.574;6.502;2024-01-11T09:09:48;46.65;;;21.58;;
76157;SDS011;64907;51.574;6.502;2024-01-11T09:12:13;40.28;;;20.48;;
76157;SDS011;64907;51.574;6.502;2024-01-11T09:14:38;42.05;;;22.63;;
76157;SDS011;64907;51.574;6.502;2024-01-11T09:17:04;44.63;;;21.38;;
76157;SDS011;64907;51.574;6.502;2024-01-11T09:19:31;48.85;;;23.55;;
76157;SDS011;64907;51.574;6.502;2024-01-11T09:22:00;40.42;;;22.27;;
76157;SDS011;64907;51.574;6.502;2024-01-11T09:24:25;47.58;;;23.23;;
76157;SDS011;64907;51.574;6.502;2024-01-11T09:26:50;47.53;;;23.58;;
76157;SDS011;64907;51.574;6.502;2024-01-11T09:29:16;48.92;;;23.17;;
76157;SDS011;64907;51.574;6.502;2024-01-11T09:31:41;44.58;;;22.88;;
76157;SDS011;64907;51.574;6.502;2024-01-11T09:34:13;55.92;;;23.83;;
76157;SDS011;64907;51.574;6.502;2024-01-11T09:39:12;45.22;;;23.10;;
76157;SDS011;64907;51.574;6.502;2024-01-11T09:41:38;42.80;;;21.83;;
76157;SDS011;64907;51.574;6.502;2024-01-11T09:44:06;49.45;;;23.73;;
76157;SDS011;64907;51.574;6.502;2024-01-11T09:46:31;45.22;;;24.20;;
76157;SDS011;64907;51.574;6.502;2024-01-11T09:48:57;40.28;;;22.10;;
76157;SDS011;64907;51.574;6.502;2024-01-11T09:51:25;45.50;;;22.55;;
76157;SDS011;64907;51.574;6.502;2024-01-11T09:53:51;44.22;;;22.10;;
76157;SDS011;64907;51.574;6.502;2024-01-11T09:56:18;41.95;;;22.33;;
76157;SDS011;64907;51.574;6.502;2024-01-11T10:01:16;40.97;;;21.77;;
76157;SDS011;64907;51.574;6.502;2024-01-11T10:03:42;43.45;;;22.02;;
76157;SDS011;64907;51.574;6.502;2024-01-11T10:06:09;42.88;;;20.27;;
76157;SDS011;64907;51.574;6.502;2024-01-11T10:08:42;39.03;;;21.08;;
76157;SDS011;64907;51.574;6.502;2024-01-11T10:11:14;37.47;;;20.30;;
76157;SDS011;64907;51.574;6.502;2024-01-11T10:13:39;42.15;;;22.73;;
76157;SDS011;64907;51.574;6.502;2024-01-11T10:18:35;42.80;;;21.17;;
76157;SDS011;64907;51.574;6.502;2024-01-11T10:21:00;43.20;;;21.67;;
76157;SDS011;64907;51.574;6.502;2024-01-11T10:23:25;37.78;;;21.30;;
76157;SDS011;64907;51.574;6.502;2024-01-11T10:25:53;38.25;;;21.52;;
76157;SDS011;64907;51.574;6.502;2024-01-11T10:28:19;42.05;;;21.77;;
76157;SDS011;64907;51.574;6.502;2024-01-11T10:30:47;43.03;;;21.13;;
76157;SDS011;64907;51.574;6.502;2024-01-11T10:33:13;40.47;;;22.10;;
76157;SDS011;64907;51.574;6.502;2024-01-11T10:35:51;44.05;;;23.35;;
76157;SDS011;64907;51.574;6.502;2024-01-11T10:38:16;37.20;;;21.73;;
76157;SDS011;64907;51.574;6.502;2024-01-11T10:43:16;33.58;;;19.90;;
76157;SDS011;64907;51.574;6.502;2024-01-11T10:48:21;43.50;;;21.10;;
76157;SDS011;64907;51.574;6.502;2024-01-11T10:56:16;37.88;;;19.48;;
76157;SDS011;64907;51.574;6.502;2024-01-11T10:58:42;36.28;;;20.17;;
76157;SDS011;64907;51.574;6.502;2024-01-11T11:01:08;35.17;;;20.00;;
76157;SDS011;64907;51.574;6.502;2024-01-11T11:03:34;36.17;;;19.13;;
76157;SDS011;64907;51.574;6.502;2024-01-11T11:06:00;37.00;;;19.95;;
76157;SDS011;64907;51.574;6.502;2024-01-11T11:08:26;33.60;;;19.00;;
76157;SDS011;64907;51.574;6.502;2024-01-11T11:10:55;33.58;;;18.45;;
76157;SDS011;64907;51.574;6.502;2024-01-11T11:13:22;37.33;;;18.50;;
76157;SDS011;64907;51.574;6.502;2024-01-11T11:15:48;39.25;;;20.25;;
76157;SDS011;64907;51.574;6.502;2024-01-11T11:18:13;32.65;;;18.63;;
76157;SDS011;64907;51.574;6.502;2024-01-11T11:20:39;37.15;;;19.35;;
76157;SDS011;64907;51.574;6.502;2024-01-11T11:23:07;33.25;;;18.63;;
76157;SDS011;64907;51.574;6.502;2024-01-11T11:25:33;35.45;;;18.95;;
76157;SDS011;64907;51.574;6.502;2024-01-11T11:27:59;30.13;;;16.75;;
76157;SDS011;64907;51.574;6.502;2024-01-11T11:30:29;35.22;;;19.17;;
76157;SDS011;64907;51.574;6.502;2024-01-11T11:32:55;37.78;;;19.65;;
76157;SDS011;64907;51.574;6.502;2024-01-11T11:35:22;33.20;;;18.67;;
76157;SDS011;64907;51.574;6.502;2024-01-11T11:37:47;34.65;;;18.67;;
76157;SDS011;64907;51.574;6.502;2024-01-11T11:40:13;32.85;;;18.52;;
76157;SDS011;64907;51.574;6.502;2024-01-11T11:42:39;31.60;;;17.52;;
76157;SDS011;64907;51.574;6.502;2024-01-11T11:45:05;33.53;;;18.75;;
76157;SDS011;64907;51.574;6.502;2024-01-11T11:47:34;32.28;;;17.25;;
76157;SDS011;64907;51.574;6.502;2024-01-11T11:50:09;33.17;;;17.70;;
76157;SDS011;64907;51.574;6.502;2024-01-11T11:52:36;31.08;;;17.85;;
76157;SDS011;64907;51.574;6.502;2024-01-11T11:55:02;33.85;;;18.25;;
76157;SDS011;64907;51.574;6.502;2024-01-11T11:57:27;31.73;;;18.85;;
76157;SDS011;64907;51.574;6.502;2024-01-11T11:59:54;34.33;;;18.95;;
76157;SDS011;64907;51.574;6.502;2024-01-11T12:02:20;32.90;;;18.05;;
76157;SDS011;64907;51.574;6.502;2024-01-11T12:04:46;32.22;;;18.00;;
76157;SDS011;64907;51.574;6.502;2024-01-11T12:07:27;34.30;;;19.00;;
76157;SDS011;64907;51.574;6.502;2024-01-11T12:09:53;36.10;;;18.88;;
76157;SDS011;64907;51.574;6.502;2024-01-11T12:12:21;34.50;;;18.92;;
76157;SDS011;64907;51.574;6.502;2024-01-11T12:14:47;34.70;;;19.13;;
76157;SDS011;64907;51.574;6.502;2024-01-11T12:17:13;38.38;;;18.88;;
76157;SDS011;64907;51.574;6.502;2024-01-11T12:19:39;32.20;;;18.42;;
76157;SDS011;64907;51.574;6.502;2024-01-11T12:22:04;32.83;;;18.20;;
76157;SDS011;64907;51.574;6.502;2024-01-11T12:24:29;34.55;;;18.10;;
76157;SDS011;64907;51.574;6.502;2024-01-11T12:26:56;31.48;;;18.88;;
76157;SDS011;64907;51.574;6.502;2024-01-11T12:29:22;33.72;;;18.92;;
76157;SDS011;64907;51.574;6.502;2024-01-11T12:31:47;31.77;;;19.27;;
76157;SDS011;64907;51.574;6.502;2024-01-11T12:34:13;36.25;;;18.65;;
76157;SDS011;64907;51.574;6.502;2024-01-11T12:36:38;31.10;;;18.50;;
76157;SDS011;64907;51.574;6.502;2024-01-11T12:39:04;35.15;;;20.20;;
76157;SDS011;64907;51.574;6.502;2024-01-11T12:44:01;31.15;;;19.10;;
76157;SDS011;64907;51.574;6.502;2024-01-11T12:49:14;35.40;;;18.92;;
76157;SDS011;64907;51.574;6.502;2024-01-11T12:51:40;34.95;;;20.15;;
76157;SDS011;64907;51.574;6.502;2024-01-11T12:54:05;35.13;;;18.25;;
76157;SDS011;64907;51.574;6.502;2024-01-11T12:56:34;33.72;;;18.33;;
76157;SDS011;64907;51.574;6.502;2024-01-11T13:01:41;30.67;;;17.05;;
76157;SDS011;64907;51.574;6.502;2024-01-11T13:04:10;29.77;;;16.20;;
76157;SDS011;64907;51.574;6.502;2024-01-11T13:06:35;31.05;;;17.08;;
76157;SDS011;64907;51.574;6.502;2024-01-11T13:09:01;29.50;;;16.95;;
76157;SDS011;64907;51.574;6.502;2024-01-11T13:11:27;25.52;;;16.15;;
76157;SDS011;64907;51.574;6.502;2024-01-11T13:13:53;32.95;;;17.42;;
76157;SDS011;64907;51.574;6.502;2024-01-11T13:16:18;31.08;;;18.23;;
76157;SDS011;64907;51.574;6.502;2024-01-11T13:18:47;29.20;;;17.92;;
76157;SDS011;64907;51.574;6.502;2024-01-11T13:21:12;28.08;;;17.50;;
76157;SDS011;64907;51.574;6.502;2024-01-11T13:23:37;32.22;;;18.10;;
76157;SDS011;64907;51.574;6.502;2024-01-11T13:28:38;34.28;;;17.88;;
76157;SDS011;64907;51.574;6.502;2024-01-11T13:31:03;27.23;;;17.20;;
76157;SDS011;64907;51.574;6.502;2024-01-11T13:33:28;32.67;;;18.52;;
76157;SDS011;64907;51.574;6.502;2024-01-11T13:35:53;31.13;;;16.95;;
76157;SDS011;64907;51.574;6.502;2024-01-11T13:38:19;29.27;;;17.77;;
76157;SDS011;64907;51.574;6.502;2024-01-11T13:40:44;31.13;;;17.80;;
76157;SDS011;64907;51.574;6.502;2024-01-11T13:43:09;29.95;;;18.38;;
76157;SDS011;64907;51.574;6.502;2024-01-11T13:48:03;28.42;;;16.88;;
76157;SDS011;64907;51.574;6.502;2024-01-11T13:50:42;26.00;;;15.23;;
76157;SDS011;64907;51.574;6.502;2024-01-11T13:53:07;26.85;;;16.10;;
76157;SDS011;64907;51.574;6.502;2024-01-11T13:55:32;26.23;;;14.65;;
76157;SDS011;64907;51.574;6.502;2024-01-11T14:00:47;19.77;;;13.60;;
76157;SDS011;64907;51.574;6.502;2024-01-11T14:03:12;21.38;;;13.13;;
76157;SDS011;64907;51.574;6.502;2024-01-11T14:08:08;15.13;;;10.40;;
76157;SDS011;64907;51.574;6.502;2024-01-11T14:13:06;16.70;;;9.88;;
76157;SDS011;64907;51.574;6.502;2024-01-11T14:15:32;14.30;;;9.32;;
76157;SDS011;64907;51.574;6.502;2024-01-11T14:17:58;13.98;;;9.25;;
76157;SDS011;64907;51.574;6.502;2024-01-11T14:20:23;12.85;;;8.13;;
76157;SDS011;64907;51.574;6.502;2024-01-11T14:22:49;12.38;;;7.93;;
76157;SDS011;64907;51.574;6.502;2024-01-11T14:25:15;11.00;;;7.55;;
76157;SDS011;64907;51.574;6.502;2024-01-11T14:27:40;12.88;;;7.80;;
76157;SDS011;64907;51.574;6.502;2024-01-11T14:30:06;10.60;;;7.07;;
76157;SDS011;64907;51.574;6.502;2024-01-11T14:32:31;11.60;;;6.22;;
76157;SDS011;64907;51.574;6.502;2024-01-11T14:34:57;8.75;;;6.15;;
76157;SDS011;64907;51.574;6.502;2024-01-11T14:37:22;8.30;;;5.95;;
76157;SDS011;64907;51.574;6.502;2024-01-11T14:39:47;12.73;;;7.10;;
76157;SDS011;64907;51.574;6.502;2024-01-11T14:42:12;9.20;;;6.30;;
76157;SDS011;64907;51.574;6.502;2024-01-11T14:44:51;9.02;;;6.43;;
76157;SDS011;64907;51.574;6.502;2024-01-11T14:47:16;10.00;;;6.68;;
76157;SDS011;64907;51.574;6.502;2024-01-11T14:49:41;10.45;;;6.55;;
76157;SDS011;64907;51.574;6.502;2024-01-11T14:52:06;9.85;;;6.55;;
76157;SDS011;64907;51.574;6.502;2024-01-11T14:54:32;9.02;;;6.05;;
76157;SDS011;64907;51.574;6.502;2024-01-11T14:57:05;10.48;;;6.20;;
76157;SDS011;64907;51.574;6.502;2024-01-11T14:59:31;9.98;;;5.85;;
76157;SDS011;64907;51.574;6.502;2024-01-11T15:01:57;8.55;;;5.63;;
76157;SDS011;64907;51.574;6.502;2024-01-11T15:04:24;8.90;;;5.72;;
76157;SDS011;64907;51.574;6.502;2024-01-11T15:06:49;8.25;;;5.80;;
76157;SDS011;64907;51.574;6.502;2024-01-11T15:09:14;8.50;;;6.18;;
76157;SDS011;64907;51.574;6.502;2024-01-11T15:14:10;7.68;;;6.10;;
76157;SDS011;64907;51.574;6.502;2024-01-11T15:16:36;10.38;;;6.32;;